sensor_id;sensor_type;location;lat;lon;timestamp;pressure;altitude;pressure_sealevel;temperature;humidity
2761;BME280;15420;48.636;9.798;2023-03-14T00:02:01;95294.31;;;11.73;100.00
2761;BME280;15420;48.636;9.798;2023-03-14T00:04:28;95284.00;;;11.72;100.00
2761;BME280;15420;48.636;9.798;2023-03-14T00:06:56;95278.84;;;11.72;100.00
2761;BME280;15420;48.636;9.798;2023-03-14T00:09:22;95253.94;;;11.69;100.00
2761;BME280;15420;48.636;9.798;2023-03-14T00:11:48;95234.13;;;11.71;100.00
2761;BME280;15420;48.636;9.798;2023-03-14T00:14:17;95225.53;;;11.72;100.00
2761;BME280;15420;48.636;9.798;2023-03-14T00:16:46;95200.56;;;11.79;100.00
2761;BME280;15420;48.636;9.798;2023-03-14T00:19:13;95213.47;;;11.77;100.00
2761;BME280;15420;48.636;9.798;2023-03-14T00:21:41;95212.59;;;11.74;100.00
2761;BME280;15420;48.636;9.798;2023-03-14T00:24:08;95204.03;;;11.72;100.00
2761;BME280;15420;48.636;9.798;2023-03-14T00:26:34;95203.16;;;11.77;100.00
2761;BME280;15420;48.636;9.798;2023-03-14T00:29:01;95202.34;;;11.69;100.00
2761;BME280;15420;48.636;9.798;2023-03-14T00:31:27;95185.13;;;11.70;100.00
2761;BME280;15420;48.636;9.798;2023-03-14T00:33:54;95168.81;;;11.66;100.00
2761;BME280;15420;48.636;9.798;2023-03-14T00:36:21;95152.53;;;11.61;100.00
2761;BME280;15420;48.636;9.798;2023-03-14T00:38:48;95112.13;;;11.60;100.00
2761;BME280;15420;48.636;9.798;2023-03-14T00:41:18;95075.13;;;11.63;100.00
2761;BME280;15420;48.636;9.798;2023-03-14T00:43:47;95038.16;;;11.62;100.00
2761;BME280;15420;48.636;9.798;2023-03-14T00:46:14;95006.28;;;11.66;100.00
2761;BME280;15420;48.636;9.798;2023-03-14T00:48:45;95054.41;;;11.69;100.00
2761;BME280;15420;48.636;9.798;2023-03-14T00:51:11;95033.06;;;11.58;100.00
2761;BME280;15420;48.636;9.798;2023-03-14T00:53:41;95033.94;;;11.55;100.00
2761;BME280;15420;48.636;9.798;2023-03-14T00:56:13;95059.00;;;11.44;100.00
2761;BME280;15420;48.636;9.798;2023-03-14T00:58:42;95066.88;;;11.32;100.00
2761;BME280;15420;48.636;9.798;2023-03-14T01:01:12;95071.22;;;11.27;100.00
2761;BME280;15420;48.636;9.798;2023-03-14T01:03:39;95072.13;;;11.23;100.00
2761;BME280;15420;48.636;9.798;2023-03-14T01:06:16;95084.16;;;11.24;100.00
2761;BME280;15420;48.636;9.798;2023-03-14T01:08:43;95081.59;;;11.21;100.00
2761;BME280;15420;48.636;9.798;2023-03-14T01:11:12;95097.09;;;11.18;100.00
2761;BME280;15420;48.636;9.798;2023-03-14T01:13:42;95093.66;;;11.19;100.00
2761;BME280;15420;48.636;9.798;2023-03-14T01:16:09;95108.28;;;11.15;100.00
2761;BME280;15420;48.636;9.798;2023-03-14T01:18:37;95115.19;;;11.10;100.00
2761;BME280;15420;48.636;9.798;2023-03-14T01:21:15;95111.75;;;11.11;100.00
2761;BME280;15420;48.636;9.798;2023-03-14T01:23:42;95108.34;;;11.07;100.00
2761;BME280;15420;48.636;9.798;2023-03-14T01:26:11;95104.06;;;11.05;100.00
2761;BME280;15420;48.636;9.798;2023-03-14T01:28:40;95098.94;;;11.03;100.00
2761;BME280;15420;48.636;9.798;2023-03-14T01:31:09;95099.78;;;11.04;100.00
2761;BME280;15420;48.636;9.798;2023-03-14T01:33:41;95089.50;;;11.02;100.00
2761;BME280;15420;48.636;9.798;2023-03-14T01:36:08;95068.03;;;11.00;100.00
2761;BME280;15420;48.636;9.798;2023-03-14T01:38:39;95063.75;;;10.98;100.00
2761;BME280;15420;48.636;9.798;2023-03-14T01:41:11;95063.75;;;10.98;100.00
2761;BME280;15420;48.636;9.798;2023-03-14T01:43:38;95065.47;;;10.97;100.00
2761;BME280;15420;48.636;9.798;2023-03-14T01:48:42;95044.91;;;10.93;100.00
2761;BME280;15420;48.636;9.798;2023-03-14T01:51:26;95045.75;;;10.93;100.00
2761;BME280;15420;48.636;9.798;2023-03-14T01:54:11;95044.06;;;10.92;100.00
2761;BME280;15420;48.636;9.798;2023-03-14T01:56:48;95039.78;;;10.91;100.00
2761;BME280;15420;48.636;9.798;2023-03-14T01:59:16;95034.63;;;10.91;100.00
2761;BME280;15420;48.636;9.798;2023-03-14T02:01:45;95032.91;;;10.89;100.00
2761;BME280;15420;48.636;9.798;2023-03-14T02:04:13;95045.78;;;10.90;100.00
2761;BME280;15420;48.636;9.798;2023-03-14T02:07:00;95048.38;;;10.89;100.00
2761;BME280;15420;48.636;9.798;2023-03-14T02:09:30;95037.22;;;10.88;100.00
2761;BME280;15420;48.636;9.798;2023-03-14T02:11:57;95029.50;;;10.88;100.00
2761;BME280;15420;48.636;9.798;2023-03-14T02:14:30;95018.34;;;10.85;100.00
2761;BME280;15420;48.636;9.798;2023-03-14T02:17:02;95016.63;;;10.87;100.00
2761;BME280;15420;48.636;9.798;2023-03-14T02:22:21;95015.75;;;10.86;100.00
2761;BME280;15420;48.636;9.798;2023-03-14T02:27:37;95008.03;;;10.86;100.00
2761;BME280;15420;48.636;9.798;2023-03-14T02:30:17;95024.34;;;10.87;100.00
2761;BME280;15420;48.636;9.798;2023-03-14T02:32:48;95016.63;;;10.87;100.00
2761;BME280;15420;48.636;9.798;2023-03-14T02:35:23;95015.75;;;10.88;100.00
2761;BME280;15420;48.636;9.798;2023-03-14T02:38:17;95004.56;;;10.90;100.00
2761;BME280;15420;48.636;9.798;2023-03-14T02:40:46;95009.75;;;10.87;100.00
2761;BME280;15420;48.636;9.798;2023-03-14T02:43:13;94987.41;;;10.88;100.00
2761;BME280;15420;48.636;9.798;2023-03-14T02:45:44;94975.41;;;10.87;100.00
2761;BME280;15420;48.636;9.798;2023-03-14T02:51:04;94982.25;;;10.89;100.00
2761;BME280;15420;48.636;9.798;2023-03-14T02:53:35;94991.69;;;10.90;100.00
2761;BME280;15420;48.636;9.798;2023-03-14T02:56:03;94970.19;;;10.91;100.00
2761;BME280;15420;48.636;9.798;2023-03-14T02:58:35;94981.31;;;10.95;100.00
2761;BME280;15420;48.636;9.798;2023-03-14T03:01:02;94974.47;;;10.94;100.00
2761;BME280;15420;48.636;9.798;2023-03-14T03:03:28;94981.34;;;10.93;100.00
2761;BME280;15420;48.636;9.798;2023-03-14T03:05:56;94980.50;;;10.93;100.00
2761;BME280;15420;48.636;9.798;2023-03-14T03:08:24;94973.63;;;10.93;100.00
2761;BME280;15420;48.636;9.798;2023-03-14T03:10:52;94983.91;;;10.93;100.00
2761;BME280;15420;48.636;9.798;2023-03-14T03:13:20;94976.19;;;10.93;100.00
2761;BME280;15420;48.636;9.798;2023-03-14T03:15:46;94978.78;;;10.93;100.00
2761;BME280;15420;48.636;9.798;2023-03-14T03:18:13;94965.03;;;10.93;100.00
2761;BME280;15420;48.636;9.798;2023-03-14T03:20:39;94950.44;;;10.93;100.00
2761;BME280;15420;48.636;9.798;2023-03-14T03:23:05;94952.16;;;10.93;100.00
2761;BME280;15420;48.636;9.798;2023-03-14T03:25:32;94932.38;;;10.93;100.00
2761;BME280;15420;48.636;9.798;2023-03-14T03:27:59;94931.56;;;10.91;100.00
2761;BME280;15420;48.636;9.798;2023-03-14T03:30:27;94940.16;;;10.90;100.00
2761;BME280;15420;48.636;9.798;2023-03-14T03:32:53;94922.97;;;10.91;100.00
2761;BME280;15420;48.636;9.798;2023-03-14T03:35:19;94929.00;;;10.90;100.00
2761;BME280;15420;48.636;9.798;2023-03-14T03:37:45;94925.56;;;10.89;100.00
2761;BME280;15420;48.636;9.798;2023-03-14T03:40:14;94914.38;;;10.90;100.00
2761;BME280;15420;48.636;9.798;2023-03-14T03:42:40;94918.69;;;10.90;100.00
2761;BME280;15420;48.636;9.798;2023-03-14T03:45:06;94904.94;;;10.89;100.00
2761;BME280;15420;48.636;9.798;2023-03-14T03:47:33;94889.50;;;10.89;100.00
2761;BME280;15420;48.636;9.798;2023-03-14T03:49:59;94898.09;;;10.87;100.00
2761;BME280;15420;48.636;9.798;2023-03-14T03:52:25;94894.66;;;10.88;100.00
2761;BME280;15420;48.636;9.798;2023-03-14T03:54:51;94888.66;;;10.87;100.00
2761;BME280;15420;48.636;9.798;2023-03-14T03:57:17;94892.09;;;10.86;100.00
2761;BME280;15420;48.636;9.798;2023-03-14T03:59:43;94889.53;;;10.85;100.00
2761;BME280;15420;48.636;9.798;2023-03-14T04:02:09;94888.72;;;10.82;100.00
2761;BME280;15420;48.636;9.798;2023-03-14T04:04:36;94895.56;;;10.84;100.00
2761;BME280;15420;48.636;9.798;2023-03-14T04:07:06;94894.72;;;10.81;100.00
2761;BME280;15420;48.636;9.798;2023-03-14T04:09:34;94887.00;;;10.81;100.00
2761;BME280;15420;48.636;9.798;2023-03-14T04:12:00;94894.72;;;10.81;100.00
2761;BME280;15420;48.636;9.798;2023-03-14T04:14:27;94894.75;;;10.80;100.00
2761;BME280;15420;48.636;9.798;2023-03-14T04:16:53;94895.63;;;10.79;100.00
2761;BME280;15420;48.636;9.798;2023-03-14T04:19:20;94909.38;;;10.78;100.00
2761;BME280;15420;48.636;9.798;2023-03-14T04:21:48;94905.06;;;10.78;100.00
2761;BME280;15420;48.636;9.798;2023-03-14T04:24:15;94900.78;;;10.77;100.00
2761;BME280;15420;48.636;9.798;2023-03-14T04:26:43;94899.06;;;10.78;100.00
2761;BME280;15420;48.636;9.798;2023-03-14T04:29:09;94899.06;;;10.78;100.00
2761;BME280;15420;48.636;9.798;2023-03-14T04:31:44;94893.09;;;10.74;100.00
2761;BME280;15420;48.636;9.798;2023-03-14T04:34:12;94897.41;;;10.72;100.00
2761;BME280;15420;48.636;9.798;2023-03-14T04:36:38;94887.97;;;10.71;100.00
2761;BME280;15420;48.636;9.798;2023-03-14T04:39:04;94883.69;;;10.70;100.00
2761;BME280;15420;48.636;9.798;2023-03-14T04:41:33;94894.88;;;10.68;100.00
2761;BME280;15420;48.636;9.798;2023-03-14T04:44:01;94882.88;;;10.67;100.00
2761;BME280;15420;48.636;9.798;2023-03-14T04:46:27;94887.16;;;10.66;100.00
2761;BME280;15420;48.636;9.798;2023-03-14T04:48:53;94882.88;;;10.67;100.00
2761;BME280;15420;48.636;9.798;2023-03-14T04:51:22;94876.00;;;10.67;100.00
2761;BME280;15420;48.636;9.798;2023-03-14T04:53:53;94872.56;;;10.65;100.00
2761;BME280;15420;48.636;9.798;2023-03-14T04:56:20;94861.41;;;10.66;100.00
2761;BME280;15420;48.636;9.798;2023-03-14T04:58:46;94866.59;;;10.63;100.00
2761;BME280;15420;48.636;9.798;2023-03-14T05:01:15;94865.72;;;10.64;100.00
2761;BME280;15420;48.636;9.798;2023-03-14T05:03:45;94854.53;;;10.65;100.00
2761;BME280;15420;48.636;9.798;2023-03-14T05:06:11;94845.13;;;10.63;100.00
2761;BME280;15420;48.636;9.798;2023-03-14T05:08:42;94841.69;;;10.62;100.00
2761;BME280;15420;48.636;9.798;2023-03-14T05:11:10;94833.13;;;10.62;100.00
2761;BME280;15420;48.636;9.798;2023-03-14T05:13:37;94839.16;;;10.59;100.00
2761;BME280;15420;48.636;9.798;2023-03-14T05:16:09;94828.00;;;10.60;100.00
2761;BME280;15420;48.636;9.798;2023-03-14T05:18:38;94826.28;;;10.61;100.00
2761;BME280;15420;48.636;9.798;2023-03-14T05:21:05;94836.59;;;10.59;100.00
2761;BME280;15420;48.636;9.798;2023-03-14T05:23:39;94840.00;;;10.60;100.00
2761;BME280;15420;48.636;9.798;2023-03-14T05:26:06;94839.19;;;10.58;100.00
2761;BME280;15420;48.636;9.798;2023-03-14T05:28:34;94835.75;;;10.57;100.00
2761;BME280;15420;48.636;9.798;2023-03-14T05:31:03;94831.44;;;10.58;100.00
2761;BME280;15420;48.636;9.798;2023-03-14T05:33:34;94839.19;;;10.56;100.00
2761;BME280;15420;48.636;9.798;2023-03-14T05:36:03;94823.75;;;10.55;100.00
2761;BME280;15420;48.636;9.798;2023-03-14T05:38:29;94820.34;;;10.54;100.00
2761;BME280;15420;48.636;9.798;2023-03-14T05:40:57;94811.75;;;10.55;100.00
2761;BME280;15420;48.636;9.798;2023-03-14T05:43:25;94812.59;;;10.54;100.00
2761;BME280;15420;48.636;9.798;2023-03-14T05:45:56;94815.19;;;10.53;100.00
2761;BME280;15420;48.636;9.798;2023-03-14T05:48:22;94802.31;;;10.53;100.00
2761;BME280;15420;48.636;9.798;2023-03-14T05:50:54;94809.19;;;10.54;100.00
2761;BME280;15420;48.636;9.798;2023-03-14T05:53:20;94820.31;;;10.56;100.00
2761;BME280;15420;48.636;9.798;2023-03-14T05:55:46;94812.63;;;10.53;99.90
2761;BME280;15420;48.636;9.798;2023-03-14T05:58:15;94812.59;;;10.54;99.53
2761;BME280;15420;48.636;9.798;2023-03-14T06:00:43;94813.47;;;10.53;99.46
2761;BME280;15420;48.636;9.798;2023-03-14T06:03:09;94805.75;;;10.55;100.00
2761;BME280;15420;48.636;9.798;2023-03-14T06:05:38;94813.47;;;10.55;99.86
2761;BME280;15420;48.636;9.798;2023-03-14T06:08:04;94802.31;;;10.54;100.00
2761;BME280;15420;48.636;9.798;2023-03-14T06:10:30;94809.16;;;10.55;100.00
2761;BME280;15420;48.636;9.798;2023-03-14T06:13:01;94798.00;;;10.55;100.00
2761;BME280;15420;48.636;9.798;2023-03-14T06:15:27;94787.72;;;10.55;100.00
2761;BME280;15420;48.636;9.798;2023-03-14T06:18:04;94794.59;;;10.54;100.00
2761;BME280;15420;48.636;9.798;2023-03-14T06:20:32;94794.59;;;10.54;100.00
2761;BME280;15420;48.636;9.798;2023-03-14T06:22:59;94795.47;;;10.53;100.00
2761;BME280;15420;48.636;9.798;2023-03-14T06:25:25;94788.59;;;10.52;100.00
2761;BME280;15420;48.636;9.798;2023-03-14T06:27:56;94798.91;;;10.52;100.00
2761;BME280;15420;48.636;9.798;2023-03-14T06:30:22;94798.91;;;10.52;100.00
2761;BME280;15420;48.636;9.798;2023-03-14T06:32:49;94802.34;;;10.51;100.00
2761;BME280;15420;48.636;9.798;2023-03-14T06:35:15;94804.06;;;10.52;100.00
2761;BME280;15420;48.636;9.798;2023-03-14T06:37:41;94795.47;;;10.53;100.00
2761;BME280;15420;48.636;9.798;2023-03-14T06:40:11;94788.56;;;10.55;100.00
2761;BME280;15420;48.636;9.798;2023-03-14T06:42:43;94790.28;;;10.56;100.00
2761;BME280;15420;48.636;9.798;2023-03-14T06:45:11;94785.97;;;10.57;100.00
2761;BME280;15420;48.636;9.798;2023-03-14T06:47:40;94792.81;;;10.58;100.00
2761;BME280;15420;48.636;9.798;2023-03-14T06:50:07;94792.81;;;10.58;100.00
2761;BME280;15420;48.636;9.798;2023-03-14T06:52:34;94790.25;;;10.58;100.00
2761;BME280;15420;48.636;9.798;2023-03-14T06:55:02;94786.81;;;10.57;100.00
2761;BME280;15420;48.636;9.798;2023-03-14T06:57:28;94797.13;;;10.57;100.00
2761;BME280;15420;48.636;9.798;2023-03-14T06:59:57;94804.84;;;10.59;100.00
2761;BME280;15420;48.636;9.798;2023-03-14T07:02:26;94803.09;;;10.61;100.00
2761;BME280;15420;48.636;9.798;2023-03-14T07:04:52;94807.38;;;10.62;100.00
2761;BME280;15420;48.636;9.798;2023-03-14T07:07:23;94823.66;;;10.65;100.00
2761;BME280;15420;48.636;9.798;2023-03-14T07:09:49;94815.03;;;10.68;100.00
2761;BME280;15420;48.636;9.798;2023-03-14T07:12:15;94818.44;;;10.70;100.00
2761;BME280;15420;48.636;9.798;2023-03-14T07:14:44;94820.97;;;10.73;100.00
2761;BME280;15420;48.636;9.798;2023-03-14T07:17:10;94825.25;;;10.74;100.00
2761;BME280;15420;48.636;9.798;2023-03-14T07:19:36;94820.94;;;10.76;100.00
2761;BME280;15420;48.636;9.798;2023-03-14T07:22:04;94833.78;;;10.79;100.00
2761;BME280;15420;48.636;9.798;2023-03-14T07:24:32;94830.34;;;10.80;100.00
2761;BME280;15420;48.636;9.798;2023-03-14T07:27:01;94823.47;;;10.80;100.00
2761;BME280;15420;48.636;9.798;2023-03-14T07:29:27;94815.75;;;10.80;100.00
2761;BME280;15420;48.636;9.798;2023-03-14T07:31:55;94821.72;;;10.82;100.00
2761;BME280;15420;48.636;9.798;2023-03-14T07:34:22;94829.44;;;10.84;100.00
2761;BME280;15420;48.636;9.798;2023-03-14T07:36:48;94826.81;;;10.87;100.00
2761;BME280;15420;48.636;9.798;2023-03-14T07:39:14;94826.78;;;10.90;100.00
2761;BME280;15420;48.636;9.798;2023-03-14T07:41:43;94832.75;;;10.94;100.00
2761;BME280;15420;48.636;9.798;2023-03-14T07:44:09;94836.16;;;10.97;100.00
2761;BME280;15420;48.636;9.798;2023-03-14T07:46:37;94823.22;;;11.00;100.00
2761;BME280;15420;48.636;9.798;2023-03-14T07:49:03;94832.63;;;11.04;100.00
2761;BME280;15420;48.636;9.798;2023-03-14T07:51:29;94836.88;;;11.07;100.00
2761;BME280;15420;48.636;9.798;2023-03-14T07:53:58;94837.69;;;11.10;100.00
2761;BME280;15420;48.636;9.798;2023-03-14T07:56:24;94837.69;;;11.12;100.00
2761;BME280;15420;48.636;9.798;2023-03-14T07:58:50;94835.91;;;11.16;100.00
2761;BME280;15420;48.636;9.798;2023-03-14T08:01:16;94835.03;;;11.17;100.00
2761;BME280;15420;48.636;9.798;2023-03-14T08:03:42;94833.31;;;11.17;100.00
2761;BME280;15420;48.636;9.798;2023-03-14T08:06:08;94827.28;;;11.18;100.00
2761;BME280;15420;48.636;9.798;2023-03-14T08:08:34;94829.81;;;11.21;100.00
2761;BME280;15420;48.636;9.798;2023-03-14T08:11:06;94828.06;;;11.25;100.00
2761;BME280;15420;48.636;9.798;2023-03-14T08:13:40;94832.31;;;11.27;99.86
2761;BME280;15420;48.636;9.798;2023-03-14T08:16:09;94826.28;;;11.30;99.43
2761;BME280;15420;48.636;9.798;2023-03-14T08:18:35;94828.84;;;11.31;99.59
2761;BME280;15420;48.636;9.798;2023-03-14T08:21:01;94821.94;;;11.33;99.41
2761;BME280;15420;48.636;9.798;2023-03-14T08:23:27;94824.50;;;11.35;99.16
2761;BME280;15420;48.636;9.798;2023-03-14T08:26:01;94821.88;;;11.38;98.77
2761;BME280;15420;48.636;9.798;2023-03-14T08:28:27;94820.97;;;11.40;97.85
2761;BME280;15420;48.636;9.798;2023-03-14T08:31:02;94821.75;;;11.44;96.75
2761;BME280;15420;48.636;9.798;2023-03-14T08:33:33;94811.38;;;11.47;95.17
2761;BME280;15420;48.636;9.798;2023-03-14T08:36:02;94819.94;;;11.51;95.21
2761;BME280;15420;48.636;9.798;2023-03-14T08:38:28;94808.69;;;11.55;94.68
2761;BME280;15420;48.636;9.798;2023-03-14T08:41:00;94812.88;;;11.62;94.35
2761;BME280;15420;48.636;9.798;2023-03-14T08:43:28;94824.78;;;11.70;94.53
2761;BME280;15420;48.636;9.798;2023-03-14T08:46:00;94830.75;;;11.74;92.62
2761;BME280;15420;48.636;9.798;2023-03-14T08:48:27;94824.63;;;11.83;92.19
2761;BME280;15420;48.636;9.798;2023-03-14T08:51:17;94822.84;;;11.88;91.04
2761;BME280;15420;48.636;9.798;2023-03-14T08:53:46;94817.56;;;11.94;90.69
2761;BME280;15420;48.636;9.798;2023-03-14T08:56:14;94814.91;;;12.00;91.31
2761;BME280;15420;48.636;9.798;2023-03-14T08:58:43;94814.78;;;12.06;90.90
2761;BME280;15420;48.636;9.798;2023-03-14T09:01:10;94817.31;;;12.10;90.36
2761;BME280;15420;48.636;9.798;2023-03-14T09:03:37;94824.13;;;12.15;88.20
2761;BME280;15420;48.636;9.798;2023-03-14T09:06:04;94818.91;;;12.18;87.48
2761;BME280;15420;48.636;9.798;2023-03-14T09:08:33;94820.50;;;12.25;86.97
2761;BME280;15420;48.636;9.798;2023-03-14T09:11:00;94823.00;;;12.29;86.50
2761;BME280;15420;48.636;9.798;2023-03-14T09:13:32;94831.53;;;12.34;86.56
2761;BME280;15420;48.636;9.798;2023-03-14T09:16:03;94816.78;;;12.39;86.33
2761;BME280;15420;48.636;9.798;2023-03-14T09:18:32;94830.53;;;12.41;86.17
2761;BME280;15420;48.636;9.798;2023-03-14T09:21:01;94821.84;;;12.46;84.76
2761;BME280;15420;48.636;9.798;2023-03-14T09:23:30;94827.75;;;12.51;85.37
2761;BME280;15420;48.636;9.798;2023-03-14T09:25:57;94822.50;;;12.55;85.33
2761;BME280;15420;48.636;9.798;2023-03-14T09:28:25;94821.59;;;12.58;85.25
2761;BME280;15420;48.636;9.798;2023-03-14T09:30:51;94824.13;;;12.61;83.95
2761;BME280;15420;48.636;9.798;2023-03-14T09:33:20;94828.34;;;12.65;83.09
2761;BME280;15420;48.636;9.798;2023-03-14T09:35:46;94826.53;;;12.70;83.01
2761;BME280;15420;48.636;9.798;2023-03-14T09:38:13;94830.69;;;12.77;84.43
2761;BME280;15420;48.636;9.798;2023-03-14T09:40:39;94834.91;;;12.83;82.96
2761;BME280;15420;48.636;9.798;2023-03-14T09:43:05;94841.75;;;12.85;82.69
2761;BME280;15420;48.636;9.798;2023-03-14T09:45:39;94845.91;;;12.92;83.17
2761;BME280;15420;48.636;9.798;2023-03-14T09:48:21;94831.19;;;12.96;81.59
2761;BME280;15420;48.636;9.798;2023-03-14T09:50:53;94832.78;;;13.03;81.68
2761;BME280;15420;48.636;9.798;2023-03-14T09:53:41;94828.34;;;13.08;81.68
2761;BME280;15420;48.636;9.798;2023-03-14T09:56:21;94826.50;;;13.15;81.14
2761;BME280;15420;48.636;9.798;2023-03-14T09:58:58;94826.44;;;13.19;80.91
2761;BME280;15420;48.636;9.798;2023-03-14T10:01:28;94828.88;;;13.25;80.91
2761;BME280;15420;48.636;9.798;2023-03-14T10:03:57;94827.91;;;13.31;81.14
2761;BME280;15420;48.636;9.798;2023-03-14T10:06:30;94821.69;;;13.39;80.03
2761;BME280;15420;48.636;9.798;2023-03-14T10:08:56;94812.13;;;13.43;80.66
2761;BME280;15420;48.636;9.798;2023-03-14T10:11:26;94817.97;;;13.51;79.68
2761;BME280;15420;48.636;9.798;2023-03-14T10:14:08;94822.06;;;13.60;79.38
2761;BME280;15420;48.636;9.798;2023-03-14T10:16:43;94821.13;;;13.64;79.95
2761;BME280;15420;48.636;9.798;2023-03-14T10:19:15;94817.47;;;13.72;80.20
2761;BME280;15420;48.636;9.798;2023-03-14T10:21:53;94817.19;;;13.85;80.76
2761;BME280;15420;48.636;9.798;2023-03-14T10:27:38;94802.94;;;14.02;78.49
2761;BME280;15420;48.636;9.798;2023-03-14T10:30:05;94827.66;;;14.16;76.88
2761;BME280;15420;48.636;9.798;2023-03-14T10:32:37;94839.59;;;14.21;76.27
2761;BME280;15420;48.636;9.798;2023-03-14T10:38:01;94839.13;;;14.39;74.88
2761;BME280;15420;48.636;9.798;2023-03-14T10:40:39;94850.28;;;14.45;74.76
2761;BME280;15420;48.636;9.798;2023-03-14T10:43:11;94838.94;;;14.49;74.94
2761;BME280;15420;48.636;9.798;2023-03-14T10:45:43;94840.53;;;14.54;75.50
2761;BME280;15420;48.636;9.798;2023-03-14T10:51:10;94851.94;;;14.78;75.55
2761;BME280;15420;48.636;9.798;2023-03-14T10:53:41;94865.13;;;14.70;74.81
2761;BME280;15420;48.636;9.798;2023-03-14T10:56:11;94847.91;;;14.68;74.15
2761;BME280;15420;48.636;9.798;2023-03-14T10:58:44;94846.94;;;14.72;73.93
2761;BME280;15420;48.636;9.798;2023-03-14T11:09:58;94848.69;;;14.71;73.58
2761;BME280;15420;48.636;9.798;2023-03-14T11:15:20;94841.75;;;14.72;73.90
2761;BME280;15420;48.636;9.798;2023-03-14T11:18:56;94838.94;;;14.80;72.95
2761;BME280;15420;48.636;9.798;2023-03-14T11:26:40;94838.69;;;14.89;72.87
2761;BME280;15420;48.636;9.798;2023-03-14T11:29:28;94849.81;;;14.94;73.17
2761;BME280;15420;48.636;9.798;2023-03-14T11:32:01;94841.91;;;14.98;73.51
2761;BME280;15420;48.636;9.798;2023-03-14T11:34:31;94857.38;;;15.01;73.49
2761;BME280;15420;48.636;9.798;2023-03-14T11:37:06;94854.69;;;15.04;73.14
2761;BME280;15420;48.636;9.798;2023-03-14T11:39:47;94859.84;;;15.06;73.65
2761;BME280;15420;48.636;9.798;2023-03-14T11:42:18;94863.41;;;15.02;75.97
2761;BME280;15420;48.636;9.798;2023-03-14T11:44:48;94875.69;;;14.95;76.76
2761;BME280;15420;48.636;9.798;2023-03-14T11:52:35;94894.22;;;14.82;80.93
2761;BME280;15420;48.636;9.798;2023-03-14T11:55:21;94895.25;;;14.75;81.72
2761;BME280;15420;48.636;9.798;2023-03-14T11:57:53;94895.56;;;14.62;82.75
2761;BME280;15420;48.636;9.798;2023-03-14T12:00:25;94911.28;;;14.56;83.93
2761;BME280;15420;48.636;9.798;2023-03-14T12:06:04;94940.94;;;14.46;84.55
2761;BME280;15420;48.636;9.798;2023-03-14T12:08:59;94913.56;;;14.33;85.83
2761;BME280;15420;48.636;9.798;2023-03-14T12:20:16;94927.03;;;14.12;88.42
2761;BME280;15420;48.636;9.798;2023-03-14T12:23:09;94924.75;;;13.98;87.54
2761;BME280;15420;48.636;9.798;2023-03-14T12:25:37;94925.06;;;13.84;88.16
2761;BME280;15420;48.636;9.798;2023-03-14T12:28:21;94931.22;;;13.79;88.18
2761;BME280;15420;48.636;9.798;2023-03-14T12:30:47;94929.72;;;13.68;88.61
2761;BME280;15420;48.636;9.798;2023-03-14T12:33:26;94931.44;;;13.68;90.04
2761;BME280;15420;48.636;9.798;2023-03-14T12:36:00;94922.09;;;13.61;89.77
2761;BME280;15420;48.636;9.798;2023-03-14T12:38:45;94934.28;;;13.56;89.76
2761;BME280;15420;48.636;9.798;2023-03-14T12:41:24;94942.09;;;13.54;89.27
2761;BME280;15420;48.636;9.798;2023-03-14T12:43:54;94948.22;;;13.50;89.34
2761;BME280;15420;48.636;9.798;2023-03-14T12:46:22;94951.69;;;13.49;89.43
2761;BME280;15420;48.636;9.798;2023-03-14T12:51:40;94960.44;;;13.44;89.65
2761;BME280;15420;48.636;9.798;2023-03-14T12:59:55;94996.88;;;13.33;91.45
2761;BME280;15420;48.636;9.798;2023-03-14T13:10:22;95011.59;;;13.29;91.33
2761;BME280;15420;48.636;9.798;2023-03-14T13:15:31;95027.97;;;13.30;90.06
2761;BME280;15420;48.636;9.798;2023-03-14T13:18:39;95046.94;;;13.29;88.97
2761;BME280;15420;48.636;9.798;2023-03-14T13:21:26;95048.66;;;13.30;89.89
2761;BME280;15420;48.636;9.798;2023-03-14T13:26:23;95061.81;;;13.15;90.94
2761;BME280;15420;48.636;9.798;2023-03-14T13:28:50;95073.00;;;13.15;89.67
2761;BME280;15420;48.636;9.798;2023-03-14T13:31:26;95079.03;;;13.17;88.42
2761;BME280;15420;48.636;9.798;2023-03-14T13:34:06;95085.09;;;13.15;86.59
2761;BME280;15420;48.636;9.798;2023-03-14T13:36:36;95103.25;;;13.10;85.32
2761;BME280;15420;48.636;9.798;2023-03-14T13:39:02;95117.06;;;13.10;84.54
2761;BME280;15420;48.636;9.798;2023-03-14T13:41:41;95129.97;;;13.10;79.25
2761;BME280;15420;48.636;9.798;2023-03-14T13:44:17;95147.28;;;13.07;76.62
2761;BME280;15420;48.636;9.798;2023-03-14T13:46:43;95145.50;;;13.09;74.40
2761;BME280;15420;48.636;9.798;2023-03-14T13:49:21;95161.06;;;13.07;71.83
2761;BME280;15420;48.636;9.798;2023-03-14T13:51:48;95156.06;;;12.95;73.09
2761;BME280;15420;48.636;9.798;2023-03-14T13:54:17;95164.84;;;12.84;71.73
2761;BME280;15420;48.636;9.798;2023-03-14T13:56:44;95173.53;;;12.78;70.24
2761;BME280;15420;48.636;9.798;2023-03-14T13:59:22;95203.63;;;12.82;71.70
2761;BME280;15420;48.636;9.798;2023-03-14T14:01:49;95194.19;;;12.81;71.33
2761;BME280;15420;48.636;9.798;2023-03-14T14:04:19;95215.84;;;12.71;69.88
2761;BME280;15420;48.636;9.798;2023-03-14T14:07:05;95242.59;;;12.68;68.00
2761;BME280;15420;48.636;9.798;2023-03-14T14:09:37;95244.38;;;12.63;68.61
2761;BME280;15420;48.636;9.798;2023-03-14T14:12:53;95241.84;;;12.57;68.54
2761;BME280;15420;48.636;9.798;2023-03-14T14:17:39;95275.53;;;12.50;66.05
2761;BME280;15420;48.636;9.798;2023-03-14T14:20:38;95292.94;;;12.35;64.85
2761;BME280;15420;48.636;9.798;2023-03-14T14:25:39;95298.25;;;12.19;66.66
2761;BME280;15420;48.636;9.798;2023-03-14T14:28:32;95294.78;;;12.24;63.42
2761;BME280;15420;48.636;9.798;2023-03-14T14:36:24;95321.63;;;12.05;64.70
2761;BME280;15420;48.636;9.798;2023-03-14T14:39:04;95326.00;;;11.97;63.54
2761;BME280;15420;48.636;9.798;2023-03-14T14:41:34;95341.50;;;11.95;64.19
2761;BME280;15420;48.636;9.798;2023-03-14T14:44:02;95364.72;;;11.97;64.65
2761;BME280;15420;48.636;9.798;2023-03-14T14:46:32;95357.88;;;11.93;64.27
2761;BME280;15420;48.636;9.798;2023-03-14T14:49:03;95366.47;;;11.92;60.51